createdAt,value
2019-03-04T00:02:17.324Z,13.43
2019-03-04T00:04:45.787Z,13.20
2019-03-04T00:07:14.249Z,13.60
2019-03-04T00:09:43.373Z,12.87
2019-03-04T00:12:11.933Z,12.67
2019-03-04T00:14:40.456Z,12.17
2019-03-04T00:17:09.189Z,12.40
2019-03-04T00:19:37.696Z,12.80
2019-03-04T00:22:06.261Z,12.60
2019-03-04T00:24:34.719Z,13.57
2019-03-04T00:27:03.190Z,12.73
2019-03-04T00:29:31.652Z,11.90
2019-03-04T00:32:00.120Z,11.93
2019-03-04T00:34:28.653Z,11.47
2019-03-04T00:36:57.134Z,11.33
2019-03-04T00:39:25.598Z,12.17
2019-03-04T00:41:54.042Z,13.33
2019-03-04T00:44:22.494Z,12.43
2019-03-04T00:46:51.555Z,12.00
2019-03-04T00:49:20.082Z,13.03
2019-03-04T00:51:49.056Z,11.73
2019-03-04T00:54:17.968Z,11.83
2019-03-04T00:56:46.471Z,12.07
2019-03-04T00:59:15.007Z,11.40
2019-03-04T01:01:43.474Z,12.73
2019-03-04T01:04:12.140Z,10.23
2019-03-04T01:06:40.612Z,11.93
2019-03-04T01:09:11.080Z,10.87
2019-03-04T01:11:39.593Z,10.67
2019-03-04T01:14:08.056Z,11.43
2019-03-04T01:16:36.937Z,10.70
2019-03-04T01:19:05.395Z,10.87
2019-03-04T01:21:33.857Z,12.73
2019-03-04T01:24:02.324Z,10.27
2019-03-04T01:26:30.788Z,10.40
2019-03-04T01:28:59.267Z,9.87
2019-03-04T01:31:27.729Z,11.10
2019-03-04T01:33:56.190Z,9.73
2019-03-04T01:36:24.643Z,10.60
2019-03-04T01:38:53.145Z,9.80
2019-03-04T01:41:21.768Z,9.13
2019-03-04T01:43:50.253Z,9.63
2019-03-04T01:46:18.707Z,9.83
2019-03-04T01:48:47.210Z,10.00
2019-03-04T01:51:15.658Z,10.37
2019-03-04T01:53:44.245Z,9.53
2019-03-04T01:56:12.790Z,9.53
2019-03-04T01:58:41.256Z,8.33
2019-03-04T02:01:09.701Z,8.93
2019-03-04T02:03:45.884Z,8.13
2019-03-04T02:06:14.393Z,9.37
2019-03-04T02:08:42.846Z,8.70
2019-03-04T02:11:11.570Z,9.73
2019-03-04T02:13:40.014Z,8.93
2019-03-04T02:16:08.495Z,8.20
2019-03-04T02:18:37.038Z,8.43
2019-03-04T02:21:05.534Z,8.17
2019-03-04T02:23:34.017Z,8.07
2019-03-04T02:26:05.584Z,7.33
2019-03-04T02:28:34.158Z,7.53
2019-03-04T02:31:02.747Z,8.27
2019-03-04T02:33:31.220Z,7.77
2019-03-04T02:35:59.758Z,7.50
2019-03-04T02:38:28.203Z,7.80
2019-03-04T02:40:56.687Z,8.30
2019-03-04T02:43:25.135Z,8.57
2019-03-04T02:45:53.587Z,8.80
2019-03-04T02:48:22.172Z,8.20
2019-03-04T02:50:50.687Z,8.23
2019-03-04T02:53:19.219Z,8.80
2019-03-04T02:55:47.684Z,11.10
2019-03-04T02:58:16.137Z,11.57
2019-03-04T03:00:44.657Z,12.20
2019-03-04T03:03:13.240Z,11.20
2019-03-04T03:05:41.698Z,11.07
2019-03-04T03:08:10.151Z,10.13
2019-03-04T03:10:38.609Z,8.97
2019-03-04T03:13:07.196Z,8.33
2019-03-04T03:15:35.729Z,7.10
2019-03-04T03:18:04.276Z,6.30
2019-03-04T03:20:32.812Z,7.23
2019-03-04T03:23:01.350Z,6.50
2019-03-04T03:25:29.873Z,6.27
2019-03-04T03:27:58.341Z,5.43
2019-03-04T03:30:26.879Z,6.10
2019-03-04T03:32:55.416Z,5.47
2019-03-04T03:35:23.948Z,6.47
2019-03-04T03:37:52.474Z,5.77
2019-03-04T03:40:21.689Z,5.97
2019-03-04T03:42:50.222Z,6.27
2019-03-04T03:45:19.086Z,5.57
2019-03-04T03:47:47.697Z,5.47
2019-03-04T03:50:17.264Z,5.80
2019-03-04T03:52:46.331Z,5.90
2019-03-04T03:55:16.850Z,5.30
2019-03-04T03:57:45.480Z,6.20
2019-03-04T04:00:19.671Z,4.73
2019-03-04T04:02:48.333Z,5.27
2019-03-04T04:05:17.171Z,5.00
2019-03-04T04:07:45.771Z,5.07
2019-03-04T04:10:16.935Z,4.67
2019-03-04T04:12:45.555Z,5.20
2019-03-04T04:15:15.397Z,5.00
2019-03-04T04:17:43.844Z,5.37
2019-03-04T04:20:13.163Z,4.27
2019-03-04T04:22:41.703Z,5.40
2019-03-04T04:25:11.470Z,4.47
2019-03-04T04:27:39.993Z,4.50
2019-03-04T04:30:11.733Z,5.47
2019-03-04T04:32:40.606Z,4.30
2019-03-04T04:35:09.753Z,5.17
2019-03-04T04:37:38.373Z,5.50
2019-03-04T04:40:12.226Z,5.80
2019-03-04T04:42:40.738Z,5.50
2019-03-04T04:45:10.125Z,5.63
2019-03-04T04:47:40.128Z,5.37
2019-03-04T04:50:14.687Z,5.10
2019-03-04T04:52:43.226Z,4.43
2019-03-04T04:55:11.812Z,4.47
2019-03-04T04:57:40.387Z,5.53
2019-03-04T05:00:12.261Z,5.40
2019-03-04T05:02:40.810Z,5.00
2019-03-04T05:05:09.352Z,5.33
2019-03-04T05:07:37.912Z,5.00
2019-03-04T05:10:09.520Z,4.30
2019-03-04T05:12:37.963Z,4.77
2019-03-04T05:15:09.467Z,4.80
2019-03-04T05:17:39.836Z,4.40
2019-03-04T05:20:11.778Z,4.57
2019-03-04T05:22:41.034Z,5.27
2019-03-04T05:25:10.069Z,3.63
2019-03-04T05:27:38.777Z,3.67
2019-03-04T05:30:13.137Z,4.20
2019-03-04T05:32:41.596Z,4.40
2019-03-04T05:35:10.137Z,5.13
2019-03-04T05:37:38.688Z,4.70
2019-03-04T05:40:18.190Z,4.27
2019-03-04T05:42:47.219Z,4.43
2019-03-04T05:45:17.779Z,4.17
2019-03-04T05:47:46.404Z,4.57
2019-03-04T05:50:19.957Z,4.30
2019-03-04T05:52:48.482Z,4.43
2019-03-04T05:55:17.057Z,4.00
2019-03-04T05:57:45.516Z,4.33
2019-03-04T06:00:20.255Z,3.93
2019-03-04T06:02:50.291Z,3.83
2019-03-04T06:05:18.737Z,4.47
2019-03-04T06:07:51.723Z,4.30
2019-03-04T06:10:20.190Z,4.23
2019-03-04T06:12:48.646Z,4.23
2019-03-04T06:15:19.031Z,4.17
2019-03-04T06:17:47.473Z,4.17
2019-03-04T06:20:18.287Z,4.87
2019-03-04T06:22:46.874Z,5.03
2019-03-04T06:25:18.411Z,4.30
2019-03-04T06:27:46.972Z,4.63
2019-03-04T06:30:20.700Z,4.47
2019-03-04T06:32:49.253Z,5.30
2019-03-04T06:35:17.831Z,4.07
2019-03-04T06:37:46.360Z,3.77
2019-03-04T06:40:16.657Z,5.13
2019-03-04T06:42:45.394Z,4.77
2019-03-04T06:45:18.310Z,4.70
2019-03-04T06:47:46.843Z,4.57
2019-03-04T06:50:41.170Z,4.90
2019-03-04T06:53:09.636Z,4.73
2019-03-04T06:55:50.281Z,4.40
2019-03-04T06:58:18.812Z,4.20
2019-03-04T07:00:50.366Z,4.17
2019-03-04T07:03:20.341Z,3.70
2019-03-04T07:06:08.139Z,4.80
2019-03-04T07:08:39.659Z,5.30
2019-03-04T07:11:08.123Z,4.20
2019-03-04T07:13:36.649Z,4.17
2019-03-04T07:16:05.318Z,4.43
2019-03-04T07:18:33.846Z,5.20
2019-03-04T07:21:02.319Z,4.57
2019-03-04T07:23:30.886Z,4.17
2019-03-04T07:25:59.386Z,3.90
2019-03-04T07:28:27.839Z,5.23
2019-03-04T07:30:56.497Z,4.13
2019-03-04T07:33:24.959Z,4.60
2019-03-04T07:35:53.414Z,4.33
2019-03-04T07:38:24.940Z,4.77
2019-03-04T07:41:12.743Z,4.57
2019-03-04T07:43:41.208Z,5.30
2019-03-04T07:46:09.711Z,4.23
2019-03-04T07:48:38.174Z,4.13
2019-03-04T07:51:19.465Z,4.87
2019-03-04T07:53:47.996Z,3.97
2019-03-04T07:56:16.450Z,5.13
2019-03-04T07:58:44.991Z,4.33
2019-03-04T08:01:13.433Z,5.57
2019-03-04T08:03:41.920Z,4.60
2019-03-04T08:06:11.014Z,4.53
2019-03-04T08:08:41.877Z,4.13
2019-03-04T08:11:22.406Z,4.80
2019-03-04T08:13:56.944Z,4.63
2019-03-04T08:16:25.478Z,5.10
2019-03-04T08:18:53.934Z,4.30
2019-03-04T08:21:22.393Z,4.30
2019-03-04T08:23:50.885Z,4.30
2019-03-04T08:26:19.582Z,8.93
2019-03-04T08:28:48.040Z,3.77
2019-03-04T08:31:16.538Z,5.33
2019-03-04T08:33:44.996Z,4.50
2019-03-04T08:36:13.450Z,4.97
2019-03-04T08:38:41.953Z,4.50
2019-03-04T08:41:10.483Z,3.63
2019-03-04T08:43:38.942Z,3.83
2019-03-04T08:46:07.393Z,3.53
2019-03-04T08:48:35.841Z,4.33
2019-03-04T08:51:04.298Z,4.70
2019-03-04T08:53:32.749Z,4.90
2019-03-04T08:56:01.218Z,4.37
2019-03-04T08:58:29.771Z,3.80
2019-03-04T09:00:58.694Z,4.80
2019-03-04T09:03:27.172Z,4.30
2019-03-04T09:05:55.639Z,3.77
2019-03-04T09:08:24.161Z,3.83
2019-03-04T09:10:52.839Z,3.87
2019-03-04T09:13:21.296Z,4.43
2019-03-04T09:15:49.750Z,3.80
2019-03-04T09:18:18.241Z,3.90
2019-03-04T09:20:46.781Z,4.00
2019-03-04T09:23:15.235Z,4.33
2019-03-04T09:25:49.773Z,3.67
2019-03-04T09:28:18.228Z,3.47
2019-03-04T09:30:46.737Z,3.40
2019-03-04T09:33:15.269Z,4.07
2019-03-04T09:35:43.724Z,4.23
2019-03-04T09:38:12.206Z,4.00
2019-03-04T09:40:40.664Z,3.30
2019-03-04T09:43:09.124Z,3.87
2019-03-04T09:45:39.212Z,3.07
2019-03-04T09:48:08.051Z,2.97
2019-03-04T09:50:36.687Z,3.03
2019-03-04T09:53:05.243Z,3.63
2019-03-04T09:55:33.724Z,3.20
2019-03-04T09:58:02.253Z,3.17
2019-03-04T10:00:35.781Z,2.67
2019-03-04T10:03:19.289Z,3.60
2019-03-04T10:06:15.251Z,2.93
2019-03-04T10:08:52.964Z,2.80
2019-03-04T10:11:42.528Z,2.53
2019-03-04T10:14:48.701Z,2.10
2019-03-04T10:17:52.165Z,2.83
2019-03-04T10:20:44.972Z,2.57
2019-03-04T10:23:28.314Z,2.53
2019-03-04T10:26:08.511Z,3.17
2019-03-04T10:28:54.476Z,2.63
2019-03-04T10:32:01.024Z,4.80
2019-03-04T10:34:52.029Z,4.60
2019-03-04T10:37:38.720Z,2.90
2019-03-04T10:40:26.743Z,2.60
2019-03-04T10:43:38.070Z,2.50
2019-03-04T10:46:24.627Z,3.63
2019-03-04T10:48:53.116Z,2.13
2019-03-04T10:51:21.816Z,2.53
2019-03-04T10:53:50.355Z,2.80
2019-03-04T10:56:18.805Z,3.93
2019-03-04T10:58:47.533Z,2.40
2019-03-04T11:01:16.061Z,2.50
2019-03-04T11:03:44.527Z,2.40
2019-03-04T11:06:13.071Z,2.00
2019-03-04T11:08:41.617Z,2.67
2019-03-04T11:11:10.135Z,2.87
2019-03-04T11:13:38.884Z,1.73
2019-03-04T11:16:07.509Z,2.43
2019-03-04T11:18:36.036Z,2.53
2019-03-04T11:21:04.687Z,2.87
2019-03-04T11:23:33.665Z,2.83
2019-03-04T11:26:02.190Z,2.30
2019-03-04T11:28:30.726Z,2.93
2019-03-04T11:30:59.335Z,2.70
2019-03-04T11:33:28.141Z,2.43
2019-03-04T11:35:56.671Z,2.87
2019-03-04T11:38:34.266Z,2.60
2019-03-04T11:41:02.790Z,1.87
2019-03-04T11:43:31.246Z,2.10
2019-03-04T11:45:59.744Z,2.30
2019-03-04T11:48:28.203Z,2.60
2019-03-04T11:50:56.668Z,2.53
2019-03-04T11:53:25.150Z,2.20
2019-03-04T11:55:53.661Z,1.90
2019-03-04T11:58:22.167Z,2.40
2019-03-04T12:01:17.518Z,2.87
2019-03-04T12:03:46.110Z,2.43
2019-03-04T12:06:14.594Z,2.73
2019-03-04T12:08:43.051Z,2.30
2019-03-04T12:11:11.506Z,2.03
2019-03-04T12:13:39.968Z,2.10
2019-03-04T12:16:08.576Z,2.13
2019-03-04T12:18:37.385Z,2.47
2019-03-04T12:21:06.272Z,2.60
2019-03-04T12:23:34.739Z,2.83
2019-03-04T12:26:03.434Z,2.67
2019-03-04T12:28:31.981Z,2.30
2019-03-04T12:31:00.448Z,2.43
2019-03-04T12:33:28.965Z,2.10
2019-03-04T12:35:57.421Z,2.00
2019-03-04T12:38:25.951Z,2.80
2019-03-04T12:40:54.398Z,2.77
2019-03-04T12:43:22.885Z,3.70
2019-03-04T12:45:51.417Z,2.47
2019-03-04T12:48:20.090Z,2.23
2019-03-04T12:50:48.547Z,2.33
2019-03-04T12:53:16.989Z,3.10
2019-03-04T12:55:45.460Z,3.10
2019-03-04T12:58:13.917Z,3.73
2019-03-04T13:00:42.504Z,3.50
2019-03-04T13:03:16.535Z,3.00
2019-03-04T13:05:45.055Z,3.27
2019-03-04T13:08:13.518Z,2.70
2019-03-04T13:10:41.966Z,2.87
2019-03-04T13:13:10.570Z,2.33
2019-03-04T13:15:39.031Z,2.37
2019-03-04T13:18:09.803Z,2.57
2019-03-04T13:20:38.503Z,2.53
2019-03-04T13:23:07.471Z,3.10
2019-03-04T13:25:35.986Z,2.60
2019-03-04T13:28:08.530Z,2.60
2019-03-04T13:30:40.552Z,2.57
2019-03-04T13:33:09.614Z,2.40
2019-03-04T13:35:42.221Z,2.77
2019-03-04T13:38:10.946Z,2.30
2019-03-04T13:40:39.484Z,2.27
2019-03-04T13:43:08.383Z,2.57
2019-03-04T13:45:37.309Z,2.37
2019-03-04T13:48:06.035Z,2.47
2019-03-04T13:50:37.170Z,2.87
2019-03-04T13:53:06.215Z,3.03
2019-03-04T13:55:34.791Z,2.40
2019-03-04T13:58:03.388Z,2.83
2019-03-04T14:00:37.704Z,3.43
2019-03-04T14:03:06.677Z,2.57
2019-03-04T14:05:35.140Z,2.87
2019-03-04T14:08:03.725Z,2.60
2019-03-04T14:10:38.177Z,2.43
2019-03-04T14:13:06.708Z,3.20
2019-03-04T14:15:46.166Z,2.47
2019-03-04T14:18:14.747Z,4.37
2019-03-04T14:20:43.505Z,2.20
2019-03-04T14:23:12.027Z,2.87
2019-03-04T14:25:40.670Z,3.03
2019-03-04T14:28:09.193Z,2.37
2019-03-04T14:30:37.720Z,3.17
2019-03-04T14:33:06.195Z,3.10
2019-03-04T14:35:34.707Z,2.77
2019-03-04T14:38:22.537Z,3.03
2019-03-04T14:40:51.101Z,3.70
2019-03-04T14:43:19.554Z,3.03
2019-03-04T14:45:48.101Z,2.93
2019-03-04T14:48:18.083Z,3.07
2019-03-04T14:50:46.796Z,3.13
2019-03-04T14:53:15.315Z,3.50
2019-03-04T14:55:43.763Z,3.47
2019-03-04T14:58:12.234Z,3.23
2019-03-04T15:00:44.076Z,3.90
2019-03-04T15:03:20.977Z,3.80
2019-03-04T15:05:43.108Z,3.57
2019-03-04T15:08:11.911Z,3.30
2019-03-04T15:10:40.479Z,3.40
2019-03-04T15:13:10.036Z,3.17
2019-03-04T15:15:38.876Z,4.33
2019-03-04T15:18:07.603Z,3.53
2019-03-04T15:20:36.140Z,3.50
2019-03-04T15:23:05.065Z,3.13
2019-03-04T15:25:57.363Z,3.83
2019-03-04T15:28:27.174Z,2.63
2019-03-04T15:31:05.183Z,2.00
2019-03-04T15:33:33.828Z,2.80
2019-03-04T15:36:02.324Z,2.63
2019-03-04T15:38:30.787Z,3.00
2019-03-04T15:40:59.246Z,2.40
2019-03-04T15:43:27.915Z,2.37
2019-03-04T15:45:58.156Z,2.17
2019-03-04T15:48:28.842Z,2.57
2019-03-04T15:50:57.367Z,3.23
2019-03-04T15:53:26.104Z,2.20
2019-03-04T15:55:54.602Z,2.77
2019-03-04T15:58:23.055Z,2.60
2019-03-04T16:00:51.879Z,2.30
2019-03-04T16:03:20.369Z,2.80
2019-03-04T16:05:48.889Z,3.17
2019-03-04T16:08:17.513Z,3.07
2019-03-04T16:10:46.244Z,2.80
2019-03-04T16:13:14.707Z,2.80
2019-03-04T16:15:46.083Z,4.97
2019-03-04T16:18:14.937Z,3.30
2019-03-04T16:20:43.446Z,3.30
2019-03-04T16:23:11.914Z,4.10
2019-03-04T16:25:40.353Z,4.37
2019-03-04T16:28:11.908Z,3.47
2019-03-04T16:30:40.996Z,3.37
2019-03-04T16:33:09.542Z,3.27
2019-03-04T16:35:38.394Z,4.37
2019-03-04T16:38:06.910Z,4.43
2019-03-04T16:40:36.042Z,4.90
2019-03-04T16:43:04.568Z,3.37
2019-03-04T16:45:33.018Z,3.97
2019-03-04T16:48:01.515Z,4.13
2019-03-04T16:50:41.578Z,4.70
2019-03-04T16:53:16.008Z,3.60
2019-03-04T16:55:44.475Z,4.30
2019-03-04T16:58:13.810Z,4.07
2019-03-04T17:00:42.566Z,4.40
2019-03-04T17:03:11.024Z,4.20
2019-03-04T17:05:39.504Z,4.57
2019-03-04T17:08:08.285Z,4.43
2019-03-04T17:10:37.508Z,4.23
2019-03-04T17:13:06.107Z,4.30
2019-03-04T17:15:34.599Z,3.93
2019-03-04T17:18:03.160Z,4.53
2019-03-04T17:20:31.616Z,4.07
2019-03-04T17:23:00.223Z,3.27
2019-03-04T17:25:28.780Z,3.27
2019-03-04T17:27:57.698Z,3.90
2019-03-04T17:30:27.590Z,4.37
2019-03-04T17:32:57.793Z,3.43
2019-03-04T17:35:26.243Z,3.20
2019-03-04T17:37:54.742Z,3.67
2019-03-04T17:40:24.910Z,2.93
2019-03-04T17:42:53.392Z,5.43
2019-03-04T17:45:24.289Z,4.03
2019-03-04T17:47:53.395Z,4.60
2019-03-04T17:50:36.703Z,5.17
2019-03-04T17:53:10.078Z,4.43
2019-03-04T17:55:38.710Z,6.00
2019-03-04T17:58:07.227Z,5.10
2019-03-04T18:00:37.767Z,4.20
2019-03-04T18:03:06.430Z,4.80
2019-03-04T18:05:35.108Z,5.53
2019-03-04T18:08:03.615Z,5.57
2019-03-04T18:10:32.150Z,3.57
2019-03-04T18:13:03.089Z,5.30
2019-03-04T18:15:37.839Z,4.90
2019-03-04T18:18:06.536Z,4.27
2019-03-04T18:20:35.023Z,6.47
2019-03-04T18:23:03.831Z,5.63
2019-03-04T18:25:41.537Z,4.40
2019-03-04T18:28:31.562Z,4.37
2019-03-04T18:31:11.749Z,4.50
2019-03-04T18:33:49.145Z,4.53
2019-03-04T18:36:23.582Z,4.90
2019-03-04T18:38:57.607Z,5.20
2019-03-04T18:41:48.953Z,5.10
2019-03-04T18:44:40.477Z,3.67
2019-03-04T18:47:29.018Z,3.40
2019-03-04T18:49:57.561Z,3.33
2019-03-04T18:52:26.115Z,3.23
2019-03-04T18:54:54.618Z,3.33
2019-03-04T18:57:23.087Z,3.40
2019-03-04T18:59:51.634Z,3.03
2019-03-04T19:02:20.110Z,3.40
2019-03-04T19:04:48.564Z,3.87
2019-03-04T19:07:17.038Z,2.50
2019-03-04T19:09:45.490Z,3.07
2019-03-04T19:12:13.958Z,2.93
2019-03-04T19:14:42.481Z,3.37
2019-03-04T19:17:11.049Z,3.83
2019-03-04T19:19:39.497Z,2.90
2019-03-04T19:22:08.042Z,2.70
2019-03-04T19:24:36.611Z,2.73
2019-03-04T19:27:05.264Z,2.17
2019-03-04T19:29:33.792Z,2.90
2019-03-04T19:32:02.237Z,2.87
2019-03-04T19:34:30.949Z,3.10
2019-03-04T19:36:59.421Z,2.80
2019-03-04T19:39:27.875Z,3.43
2019-03-04T19:41:57.033Z,2.20
2019-03-04T19:44:25.563Z,2.53
2019-03-04T19:46:54.252Z,2.93
2019-03-04T19:49:22.714Z,3.50
2019-03-04T19:51:51.176Z,2.33
2019-03-04T19:54:19.642Z,3.23
2019-03-04T19:56:48.176Z,2.60
2019-03-04T19:59:16.711Z,2.50
2019-03-04T20:01:45.233Z,3.20
2019-03-04T20:04:13.730Z,3.10
2019-03-04T20:06:42.263Z,2.87
2019-03-04T20:09:10.946Z,3.80
2019-03-04T20:11:39.483Z,3.53
2019-03-04T20:14:08.090Z,2.47
2019-03-04T20:16:36.773Z,3.60
2019-03-04T20:19:05.294Z,3.13
2019-03-04T20:21:34.116Z,3.15
2019-03-04T20:24:02.598Z,3.13
2019-03-04T20:26:31.084Z,2.37
2019-03-04T20:28:59.908Z,3.43
2019-03-04T20:31:28.370Z,3.13
2019-03-04T20:33:56.909Z,3.10
2019-03-04T20:36:25.984Z,3.37
2019-03-04T20:38:54.765Z,2.90
2019-03-04T20:41:23.251Z,3.20
2019-03-04T20:43:51.794Z,2.80
2019-03-04T20:46:20.362Z,3.60
2019-03-04T20:48:48.831Z,3.73
2019-03-04T20:51:17.815Z,3.07
2019-03-04T20:53:46.293Z,3.60
2019-03-04T20:56:14.744Z,3.00
2019-03-04T20:58:43.574Z,3.03
2019-03-04T21:01:12.563Z,2.60
2019-03-04T21:03:41.092Z,3.67
2019-03-04T21:06:09.612Z,3.90
2019-03-04T21:08:38.075Z,4.13
2019-03-04T21:11:06.555Z,4.63
2019-03-04T21:13:36.096Z,3.63
2019-03-04T21:16:10.739Z,3.57
2019-03-04T21:18:39.559Z,2.90
2019-03-04T21:21:08.560Z,3.47
2019-03-04T21:23:37.047Z,3.07
2019-03-04T21:26:08.636Z,3.30
2019-03-04T21:28:55.499Z,4.00
2019-03-04T21:31:29.945Z,4.50
2019-03-04T21:34:11.376Z,4.67
2019-03-04T21:37:01.230Z,3.60
2019-03-04T21:39:36.950Z,4.83
2019-03-04T21:42:11.471Z,4.30
2019-03-04T21:44:55.023Z,3.90
2019-03-04T21:47:26.949Z,4.23
2019-03-04T21:49:55.670Z,3.53
2019-03-04T21:52:39.683Z,3.73
2019-03-04T21:55:17.229Z,4.40
2019-03-04T21:57:48.772Z,2.97
2019-03-04T22:00:22.388Z,3.33
2019-03-04T22:02:53.991Z,2.97
2019-03-04T22:05:22.510Z,3.17
2019-03-04T22:07:51.442Z,2.83
2019-03-04T22:10:19.914Z,2.40
2019-03-04T22:12:48.550Z,2.33
2019-03-04T22:15:17.696Z,2.90
2019-03-04T22:17:46.362Z,2.80
2019-03-04T22:20:18.011Z,2.23
2019-03-04T22:22:46.631Z,1.90
2019-03-04T22:25:15.407Z,2.83
2019-03-04T22:27:43.936Z,2.10
2019-03-04T22:30:15.564Z,2.67
2019-03-04T22:32:44.330Z,2.10
2019-03-04T22:35:17.384Z,2.13
2019-03-04T22:37:46.509Z,2.50
2019-03-04T22:40:20.326Z,2.63
2019-03-04T22:42:48.825Z,2.10
2019-03-04T22:45:19.285Z,2.53
2019-03-04T22:47:49.541Z,1.70
2019-03-04T22:50:22.772Z,1.70
2019-03-04T22:52:51.644Z,1.83
2019-03-04T22:55:23.595Z,1.87
2019-03-04T22:57:52.119Z,1.70
2019-03-04T23:00:54.003Z,1.83
2019-03-04T23:03:25.345Z,1.63
2019-03-04T23:06:14.746Z,1.90
2019-03-04T23:08:43.221Z,1.60
2019-03-04T23:11:11.961Z,1.23
2019-03-04T23:13:52.527Z,0.97
2019-03-04T23:16:26.760Z,1.27
2019-03-04T23:18:55.499Z,1.13
2019-03-04T23:21:24.250Z,1.30
2019-03-04T23:23:52.836Z,1.60
2019-03-04T23:26:21.296Z,1.53
2019-03-04T23:28:49.747Z,1.60
2019-03-04T23:31:18.198Z,1.70
2019-03-04T23:33:46.723Z,2.03
2019-03-04T23:36:15.223Z,2.13
2019-03-04T23:38:43.762Z,1.87
2019-03-04T23:41:14.229Z,1.17
2019-03-04T23:43:49.919Z,1.10
2019-03-04T23:46:18.374Z,1.13
2019-03-04T23:48:46.836Z,0.90
2019-03-04T23:51:15.295Z,0.80
2019-03-04T23:53:43.987Z,1.13
2019-03-04T23:56:12.851Z,0.90
2019-03-04T23:58:41.370Z,1.37
